Rota, Northern Mariana Islands
Current Conditions -  °F | °C
As of 7:50 PM on Sunday 21 Dec 2014 (Local Time) from PGRO Reporting Station
Few Clouds Few Clouds  
Wind Chill: 81°   Ceiling: Unl
Heat Index: 86°   Visibility: 7mi
Dew Point: 75°   Wind: 18mph
Humidity: 84%   Direction: 90°E
Pressure: 29.89"   Gusts: NA
Location:  14.14°N, 145.14°E
Report Text: PGRO 210950Z 09016KT 7SM FEW022 27/24 A2989 RMK LAST
Loading
Personal Weather Stations






























Interactive Weather Map New forecast layout! Learn more

10-Day Weather Forecast

Advertisements
Track Severe Weather on mobile